createdAt,value
2023-03-07T00:02:13.919Z,13.37
2023-03-07T00:04:45.896Z,14.67
2023-03-07T00:07:14.005Z,15.13
2023-03-07T00:09:41.840Z,15.60
2023-03-07T00:12:10.451Z,17.73
2023-03-07T00:14:38.151Z,13.90
2023-03-07T00:17:07.052Z,15.63
2023-03-07T00:19:34.582Z,17.13
2023-03-07T00:22:02.096Z,13.80
2023-03-07T00:24:29.667Z,14.90
2023-03-07T00:26:57.163Z,15.60
2023-03-07T00:29:24.663Z,15.00
2023-03-07T00:31:52.137Z,14.40
2023-03-07T00:34:20.981Z,13.57
2023-03-07T00:36:48.442Z,14.50
2023-03-07T00:39:15.931Z,14.40
2023-03-07T00:41:43.418Z,15.20
2023-03-07T00:44:10.922Z,15.30
2023-03-07T00:46:38.421Z,14.43
2023-03-07T00:49:05.927Z,15.73
2023-03-07T00:51:34.749Z,14.97
2023-03-07T00:54:02.215Z,15.33
2023-03-07T00:56:29.724Z,14.20
2023-03-07T00:58:57.227Z,14.13
2023-03-07T01:01:26.725Z,13.10
2023-03-07T01:03:55.878Z,15.83
2023-03-07T01:06:25.515Z,20.90
2023-03-07T01:08:54.990Z,17.10
2023-03-07T01:11:22.556Z,18.83
2023-03-07T01:13:50.132Z,22.93
2023-03-07T01:16:19.736Z,14.77
2023-03-07T01:18:50.309Z,15.57
2023-03-07T01:21:20.064Z,16.67
2023-03-07T01:23:47.881Z,17.33
2023-03-07T01:26:18.691Z,29.87
2023-03-07T01:28:46.863Z,21.87
2023-03-07T01:31:14.500Z,23.90
2023-03-07T01:33:42.689Z,34.83
2023-03-07T01:36:18.094Z,31.43
2023-03-07T01:38:45.671Z,26.00
2023-03-07T01:41:13.169Z,20.27
2023-03-07T01:43:42.185Z,27.37
2023-03-07T01:46:45.192Z,33.13
2023-03-07T01:49:19.439Z,39.30
2023-03-07T01:51:51.694Z,54.67
2023-03-07T01:54:21.488Z,49.47
2023-03-07T01:56:49.267Z,50.37
2023-03-07T01:59:25.265Z,56.40
2023-03-07T02:01:53.012Z,54.60
2023-03-07T02:04:26.489Z,30.33
2023-03-07T02:06:53.981Z,40.37
2023-03-07T02:09:23.667Z,42.53
2023-03-07T02:11:51.406Z,35.83
2023-03-07T02:14:20.253Z,32.97
2023-03-07T02:16:47.822Z,44.33
2023-03-07T02:19:28.786Z,43.37
2023-03-07T02:22:06.538Z,40.57
2023-03-07T02:24:41.152Z,35.93
2023-03-07T02:27:10.455Z,39.83
2023-03-07T02:29:37.947Z,45.57
2023-03-07T02:32:05.800Z,35.27
2023-03-07T02:34:33.470Z,33.97
2023-03-07T02:37:05.870Z,26.07
2023-03-07T02:39:34.061Z,18.97
2023-03-07T02:42:05.970Z,28.33
2023-03-07T02:44:34.936Z,26.87
2023-03-07T02:47:02.483Z,25.03
2023-03-07T02:49:29.981Z,24.23
2023-03-07T02:52:00.508Z,20.03
2023-03-07T02:54:28.032Z,24.90
2023-03-07T02:56:55.815Z,16.13
2023-03-07T02:59:23.445Z,16.97
2023-03-07T03:01:52.302Z,17.17
2023-03-07T03:04:19.831Z,14.17
2023-03-07T03:06:47.367Z,11.87
2023-03-07T03:09:14.896Z,12.60
2023-03-07T03:11:42.419Z,15.13
2023-03-07T03:14:09.909Z,16.07
2023-03-07T03:16:37.468Z,17.07
2023-03-07T03:19:06.468Z,15.40
2023-03-07T03:21:34.894Z,13.77
2023-03-07T03:24:05.863Z,19.50
2023-03-07T03:26:33.516Z,16.33
2023-03-07T03:29:01.084Z,13.80
2023-03-07T03:31:30.366Z,14.73
2023-03-07T03:33:58.449Z,14.67
2023-03-07T03:36:28.877Z,14.93
2023-03-07T03:38:58.048Z,16.60
2023-03-07T03:41:26.387Z,13.73
2023-03-07T03:43:53.886Z,14.23
2023-03-07T03:46:21.425Z,13.37
2023-03-07T03:48:53.326Z,14.60
2023-03-07T03:51:20.868Z,17.83
2023-03-07T03:53:50.224Z,14.00
2023-03-07T03:56:19.490Z,15.40
2023-03-07T03:58:48.653Z,13.10
2023-03-07T04:01:16.733Z,16.87
2023-03-07T04:03:45.879Z,15.57
2023-03-07T04:06:15.983Z,15.27
2023-03-07T04:08:44.282Z,13.90
2023-03-07T04:11:13.473Z,14.63
2023-03-07T04:13:41.167Z,14.50
2023-03-07T04:16:09.704Z,19.50
2023-03-07T04:18:37.627Z,21.60
2023-03-07T04:21:06.128Z,20.53
2023-03-07T04:23:34.872Z,21.73
2023-03-07T04:26:04.569Z,23.67
2023-03-07T04:28:45.497Z,27.57
2023-03-07T04:31:14.833Z,49.00
2023-03-07T04:33:43.334Z,28.17
2023-03-07T04:36:11.673Z,34.93
2023-03-07T04:38:40.558Z,29.87
2023-03-07T04:41:08.770Z,28.97
2023-03-07T04:43:37.631Z,38.27
2023-03-07T04:46:05.539Z,38.17
2023-03-07T04:48:33.085Z,44.93
2023-03-07T04:51:00.763Z,45.43
2023-03-07T04:53:28.243Z,55.17
2023-03-07T04:55:59.514Z,51.53
2023-03-07T04:58:27.380Z,59.90
2023-03-07T05:00:57.735Z,61.93
2023-03-07T05:03:26.773Z,58.90
2023-03-07T05:05:54.953Z,62.77
2023-03-07T05:08:23.094Z,59.67
2023-03-07T05:10:50.797Z,58.03
2023-03-07T05:13:18.252Z,59.83
2023-03-07T05:15:50.576Z,63.00
2023-03-07T05:18:19.613Z,62.00
2023-03-07T05:20:47.416Z,58.63
2023-03-07T05:23:14.924Z,58.57
2023-03-07T05:25:43.595Z,52.40
2023-03-07T05:28:11.374Z,55.70
2023-03-07T05:30:38.863Z,43.83
2023-03-07T05:33:06.401Z,34.80
2023-03-07T05:35:35.225Z,22.83
2023-03-07T05:38:02.853Z,14.90
2023-03-07T05:40:30.308Z,16.30
2023-03-07T05:42:57.806Z,14.60
2023-03-07T05:45:25.294Z,14.37
2023-03-07T05:47:52.777Z,14.50
2023-03-07T05:50:21.001Z,15.93
2023-03-07T05:52:49.836Z,15.27
2023-03-07T05:55:18.051Z,15.17
2023-03-07T05:57:45.544Z,15.57
2023-03-07T06:00:14.213Z,15.83
2023-03-07T06:02:42.321Z,16.27
2023-03-07T06:05:10.520Z,15.57
2023-03-07T06:07:38.063Z,15.07
2023-03-07T06:10:08.379Z,16.07
2023-03-07T06:12:35.825Z,14.30
2023-03-07T06:15:03.358Z,15.87
2023-03-07T06:17:30.807Z,15.27
2023-03-07T06:19:58.299Z,15.27
2023-03-07T06:22:25.837Z,19.93
2023-03-07T06:24:54.964Z,12.50
2023-03-07T06:27:23.807Z,12.97
2023-03-07T06:29:51.261Z,15.40
2023-03-07T06:32:18.758Z,16.20
2023-03-07T06:34:46.219Z,14.27
2023-03-07T06:37:13.708Z,14.27
2023-03-07T06:39:41.391Z,15.47
2023-03-07T06:42:09.022Z,15.37
2023-03-07T06:44:37.866Z,15.47
2023-03-07T06:47:05.601Z,13.50
2023-03-07T06:49:33.097Z,22.50
2023-03-07T06:52:00.552Z,19.03
2023-03-07T06:54:27.998Z,23.27
2023-03-07T06:56:55.490Z,25.90
2023-03-07T06:59:23.023Z,20.67
2023-03-07T07:01:51.939Z,33.00
2023-03-07T07:04:19.423Z,28.30
2023-03-07T07:06:46.880Z,32.17
2023-03-07T07:09:14.948Z,38.87
2023-03-07T07:11:42.423Z,33.77
2023-03-07T07:14:09.874Z,42.40
2023-03-07T07:16:37.398Z,44.23
2023-03-07T07:19:06.215Z,57.77
2023-03-07T07:21:33.673Z,60.43
2023-03-07T07:24:01.200Z,65.40
2023-03-07T07:26:28.671Z,62.40
2023-03-07T07:28:56.346Z,62.27
2023-03-07T07:31:23.885Z,62.83
2023-03-07T07:33:51.707Z,61.37
2023-03-07T07:36:22.808Z,61.30
2023-03-07T07:38:50.397Z,66.83
2023-03-07T07:41:19.090Z,64.60
2023-03-07T07:43:48.304Z,60.13
2023-03-07T07:46:15.813Z,53.83
2023-03-07T07:48:43.352Z,59.17
2023-03-07T07:51:10.833Z,56.20
2023-03-07T07:53:39.650Z,57.20
2023-03-07T07:56:07.667Z,44.07
2023-03-07T07:58:35.488Z,50.43
2023-03-07T08:01:02.961Z,48.10
2023-03-07T08:03:30.469Z,46.93
2023-03-07T08:05:57.980Z,47.30
2023-03-07T08:08:26.102Z,43.47
2023-03-07T08:10:54.918Z,44.60
2023-03-07T08:13:22.419Z,46.97
2023-03-07T08:15:49.937Z,45.10
2023-03-07T08:18:17.634Z,41.87
2023-03-07T08:20:45.106Z,46.63
2023-03-07T08:23:12.656Z,44.63
2023-03-07T08:25:40.262Z,45.67
2023-03-07T08:28:09.121Z,43.63
2023-03-07T08:30:37.142Z,40.93
2023-03-07T08:33:04.714Z,44.50
2023-03-07T08:35:32.598Z,41.70
2023-03-07T08:38:00.669Z,30.23
2023-03-07T08:40:29.276Z,39.63
2023-03-07T08:42:56.748Z,42.57
2023-03-07T08:45:25.624Z,38.90
2023-03-07T08:47:54.431Z,39.30
2023-03-07T08:50:22.009Z,38.00
2023-03-07T08:52:49.641Z,33.20
2023-03-07T08:55:17.703Z,39.93
2023-03-07T08:57:47.309Z,36.33
2023-03-07T09:00:15.971Z,36.83
2023-03-07T09:02:44.795Z,38.17
2023-03-07T09:05:12.285Z,36.20
2023-03-07T09:07:39.846Z,37.47
2023-03-07T09:10:08.155Z,35.20
2023-03-07T09:12:36.053Z,37.03
2023-03-07T09:15:03.622Z,36.93
2023-03-07T09:17:31.318Z,34.17
2023-03-07T09:20:00.138Z,39.60
2023-03-07T09:22:28.062Z,41.57
2023-03-07T09:24:55.554Z,37.20
2023-03-07T09:27:23.026Z,40.63
2023-03-07T09:29:50.520Z,35.40
2023-03-07T09:32:18.014Z,36.23
2023-03-07T09:34:46.597Z,40.07
2023-03-07T09:37:15.810Z,30.93
2023-03-07T09:39:43.287Z,31.83
2023-03-07T09:42:22.807Z,30.87
2023-03-07T09:45:04.879Z,24.80
2023-03-07T09:48:11.958Z,21.03
2023-03-07T09:50:45.991Z,12.60
2023-03-07T09:53:23.342Z,6.87
2023-03-07T09:55:52.765Z,10.03
2023-03-07T09:58:25.060Z,10.50
2023-03-07T10:00:57.561Z,10.50
2023-03-07T10:03:34.562Z,10.43
2023-03-07T10:06:13.258Z,8.60
2023-03-07T10:08:42.121Z,9.83
2023-03-07T10:11:23.987Z,8.10
2023-03-07T10:14:09.899Z,10.60
2023-03-07T10:16:47.916Z,8.80
2023-03-07T10:19:25.845Z,9.37
2023-03-07T10:22:00.366Z,9.53
2023-03-07T10:24:41.963Z,8.13
2023-03-07T10:27:10.984Z,8.47
2023-03-07T10:29:45.784Z,8.93
2023-03-07T10:32:20.986Z,10.87
2023-03-07T10:34:54.133Z,9.87
2023-03-07T10:37:25.775Z,9.60
2023-03-07T10:39:57.573Z,11.30
2023-03-07T10:42:36.049Z,9.43
2023-03-07T10:45:04.400Z,9.07
2023-03-07T10:47:31.854Z,8.90
2023-03-07T10:50:14.219Z,9.83
2023-03-07T10:52:48.511Z,8.50
2023-03-07T10:55:39.511Z,7.83
2023-03-07T10:58:15.086Z,12.03
2023-03-07T11:00:44.304Z,9.23
2023-03-07T11:03:25.016Z,9.60
2023-03-07T11:05:52.539Z,8.87
2023-03-07T11:08:28.462Z,9.10
2023-03-07T11:10:57.290Z,8.93
2023-03-07T11:13:25.685Z,9.23
2023-03-07T11:16:11.412Z,7.87
2023-03-07T11:18:42.865Z,10.83
2023-03-07T11:21:29.065Z,7.90
2023-03-07T11:24:01.010Z,9.03
2023-03-07T11:26:33.756Z,9.67
2023-03-07T11:29:10.637Z,10.63
2023-03-07T11:31:48.010Z,6.97
2023-03-07T11:34:25.179Z,9.77
2023-03-07T11:36:57.084Z,8.27
2023-03-07T11:39:34.218Z,8.43
2023-03-07T11:42:09.304Z,9.50
2023-03-07T11:44:46.030Z,8.97
2023-03-07T11:47:25.165Z,7.67
2023-03-07T11:50:06.544Z,9.30
2023-03-07T11:52:52.925Z,7.83
2023-03-07T11:55:27.733Z,8.83
2023-03-07T11:58:15.509Z,8.30
2023-03-07T12:00:53.272Z,9.60
2023-03-07T12:03:37.021Z,8.23
2023-03-07T12:06:35.198Z,10.40
2023-03-07T12:09:24.547Z,7.60
2023-03-07T12:12:05.188Z,7.60
2023-03-07T12:14:43.229Z,10.20
2023-03-07T12:17:23.803Z,7.27
2023-03-07T12:20:16.006Z,8.00
2023-03-07T12:22:54.572Z,10.27
2023-03-07T12:25:26.299Z,7.90
2023-03-07T12:28:03.777Z,7.33
2023-03-07T12:30:42.041Z,8.03
2023-03-07T12:33:22.198Z,10.70
2023-03-07T12:35:54.479Z,9.63
2023-03-07T12:38:36.175Z,11.37
2023-03-07T12:41:10.596Z,7.80
2023-03-07T12:43:45.325Z,7.50
2023-03-07T12:46:20.336Z,8.27
2023-03-07T12:48:55.061Z,4.53
2023-03-07T12:51:27.792Z,5.83
2023-03-07T12:54:01.600Z,6.50
2023-03-07T12:56:34.843Z,6.73
2023-03-07T12:59:10.047Z,5.80
2023-03-07T13:01:42.108Z,6.23
2023-03-07T13:04:18.283Z,9.03
2023-03-07T13:06:47.078Z,8.53
2023-03-07T13:09:19.758Z,4.30
2023-03-07T13:12:31.116Z,7.43
2023-03-07T13:14:59.743Z,6.00
2023-03-07T13:18:02.836Z,9.00
2023-03-07T13:20:42.833Z,4.80
2023-03-07T13:23:23.816Z,6.50
2023-03-07T13:25:58.977Z,7.10
2023-03-07T13:28:45.215Z,7.53
2023-03-07T13:31:45.260Z,6.40
2023-03-07T13:34:46.772Z,6.03
2023-03-07T13:37:52.228Z,6.00
2023-03-07T13:40:55.663Z,6.33
2023-03-07T13:43:51.594Z,7.77
2023-03-07T13:46:54.119Z,5.77
2023-03-07T13:49:35.802Z,7.27
2023-03-07T13:52:31.041Z,7.13
2023-03-07T13:55:00.362Z,6.67
2023-03-07T13:57:34.751Z,5.67
2023-03-07T14:00:04.572Z,6.47
2023-03-07T14:02:32.534Z,8.23
2023-03-07T14:05:03.794Z,7.63
2023-03-07T14:07:35.777Z,6.67
2023-03-07T14:10:21.929Z,8.90
2023-03-07T14:13:09.568Z,6.03
2023-03-07T14:15:47.433Z,9.53
2023-03-07T14:18:25.178Z,8.80
2023-03-07T14:20:59.516Z,12.13
2023-03-07T14:23:54.666Z,8.27
2023-03-07T14:26:26.965Z,7.70
2023-03-07T14:28:59.742Z,7.63
2023-03-07T14:31:30.570Z,9.03
2023-03-07T14:33:58.670Z,7.87
2023-03-07T14:36:29.850Z,8.70
2023-03-07T14:39:02.171Z,7.23
2023-03-07T14:41:48.237Z,6.97
2023-03-07T14:44:36.859Z,8.47
2023-03-07T14:47:20.986Z,6.23
2023-03-07T14:49:56.287Z,6.03
2023-03-07T14:52:31.346Z,6.40
2023-03-07T14:55:04.070Z,8.87
2023-03-07T14:57:34.798Z,5.70
2023-03-07T15:00:16.648Z,6.13
2023-03-07T15:02:49.108Z,5.50
2023-03-07T15:05:17.840Z,7.43
2023-03-07T15:07:47.865Z,6.00
2023-03-07T15:10:18.808Z,8.40
2023-03-07T15:12:51.459Z,6.27
2023-03-07T15:15:29.781Z,5.47
2023-03-07T15:18:04.650Z,5.07
2023-03-07T15:20:32.859Z,7.13
2023-03-07T15:23:05.127Z,5.47
2023-03-07T15:25:38.627Z,5.80
2023-03-07T15:28:08.196Z,6.37
2023-03-07T15:30:38.039Z,9.60
2023-03-07T15:33:17.227Z,5.20
2023-03-07T15:35:46.986Z,7.77
2023-03-07T15:38:18.910Z,9.23
2023-03-07T15:40:47.712Z,5.33
2023-03-07T15:43:25.862Z,5.77
2023-03-07T15:46:05.700Z,5.00
2023-03-07T15:48:44.027Z,5.03
2023-03-07T15:51:16.525Z,8.77
2023-03-07T15:53:46.463Z,8.20
2023-03-07T15:56:26.203Z,6.83
2023-03-07T15:59:00.373Z,6.00
2023-03-07T16:01:28.872Z,10.83
2023-03-07T16:03:58.270Z,6.10
2023-03-07T16:06:39.750Z,5.70
2023-03-07T16:09:08.221Z,6.97
2023-03-07T16:11:38.214Z,5.27
2023-03-07T16:14:05.996Z,6.33
2023-03-07T16:16:33.680Z,8.13
2023-03-07T16:19:01.189Z,5.20
2023-03-07T16:21:28.686Z,6.73
2023-03-07T16:23:56.191Z,5.30
2023-03-07T16:26:25.459Z,7.27
2023-03-07T16:28:55.063Z,5.10
2023-03-07T16:31:22.632Z,6.27
2023-03-07T16:33:50.166Z,4.97
2023-03-07T16:36:17.972Z,7.00
2023-03-07T16:38:47.419Z,5.30
2023-03-07T16:41:18.017Z,4.67
2023-03-07T16:43:46.927Z,6.77
2023-03-07T16:46:18.151Z,5.17
2023-03-07T16:48:46.295Z,4.27
2023-03-07T16:51:16.746Z,5.90
2023-03-07T16:53:44.784Z,5.07
2023-03-07T16:56:26.005Z,6.83
2023-03-07T16:58:54.147Z,6.37
2023-03-07T17:01:22.962Z,12.43
2023-03-07T17:03:50.444Z,5.23
2023-03-07T17:06:21.658Z,5.57
2023-03-07T17:08:52.955Z,6.33
2023-03-07T17:11:23.005Z,6.23
2023-03-07T17:13:53.669Z,5.10
2023-03-07T17:16:22.853Z,4.60
2023-03-07T17:18:50.413Z,6.07
2023-03-07T17:21:19.656Z,4.30
2023-03-07T17:23:49.069Z,5.07
2023-03-07T17:26:19.926Z,6.43
2023-03-07T17:28:47.605Z,5.27
2023-03-07T17:31:15.146Z,4.97
2023-03-07T17:33:43.973Z,5.30
2023-03-07T17:36:12.413Z,6.77
2023-03-07T17:38:39.885Z,8.23
2023-03-07T17:41:07.375Z,7.13
2023-03-07T17:43:34.841Z,7.20
2023-03-07T17:46:02.765Z,5.83
2023-03-07T17:48:30.505Z,5.73
2023-03-07T17:50:59.307Z,6.80
2023-03-07T17:53:26.906Z,7.37
2023-03-07T17:55:54.341Z,5.87
2023-03-07T17:58:21.793Z,5.77
2023-03-07T18:00:49.234Z,6.07
2023-03-07T18:03:16.679Z,6.03
2023-03-07T18:05:44.125Z,8.63
2023-03-07T18:08:12.941Z,6.13
2023-03-07T18:10:40.444Z,6.57
2023-03-07T18:13:09.723Z,6.63
2023-03-07T18:15:37.306Z,8.37
2023-03-07T18:18:06.771Z,6.77
2023-03-07T18:20:34.203Z,7.23
2023-03-07T18:23:01.654Z,6.77
2023-03-07T18:25:30.641Z,8.87
2023-03-07T18:28:01.306Z,11.23
2023-03-07T18:30:29.176Z,12.57
2023-03-07T18:32:56.672Z,10.03
2023-03-07T18:35:24.381Z,12.53
2023-03-07T18:37:51.822Z,13.00
2023-03-07T18:40:21.955Z,16.70
2023-03-07T18:42:50.764Z,18.57
2023-03-07T18:45:18.520Z,16.80
2023-03-07T18:47:46.006Z,21.83
2023-03-07T18:50:13.445Z,20.90
2023-03-07T18:52:40.885Z,18.30
2023-03-07T18:55:09.054Z,11.97
2023-03-07T18:57:36.615Z,8.23
2023-03-07T19:00:06.997Z,11.53
2023-03-07T19:02:34.567Z,7.50
2023-03-07T19:05:02.133Z,8.00
2023-03-07T19:07:31.292Z,7.20
2023-03-07T19:09:59.209Z,5.90
2023-03-07T19:12:26.657Z,8.57
2023-03-07T19:14:54.134Z,8.13
2023-03-07T19:17:22.957Z,7.60
2023-03-07T19:19:52.826Z,8.17
2023-03-07T19:22:25.308Z,11.17
2023-03-07T19:24:53.883Z,6.87
2023-03-07T19:27:21.432Z,6.00
2023-03-07T19:29:48.940Z,6.43
2023-03-07T19:32:17.856Z,5.27
2023-03-07T19:34:49.448Z,6.50
2023-03-07T19:37:16.938Z,6.43
2023-03-07T19:39:44.429Z,5.00
2023-03-07T19:42:11.892Z,6.70
2023-03-07T19:44:39.354Z,8.00
2023-03-07T19:47:06.842Z,6.10
2023-03-07T19:49:35.650Z,5.63
2023-03-07T19:52:04.534Z,5.93
2023-03-07T19:54:32.566Z,4.77
2023-03-07T19:57:00.047Z,4.27
2023-03-07T19:59:27.602Z,6.57
2023-03-07T20:01:55.095Z,5.17
2023-03-07T20:04:22.640Z,5.93
2023-03-07T20:06:50.119Z,6.17
2023-03-07T20:09:19.262Z,5.10
2023-03-07T20:11:46.860Z,5.03
2023-03-07T20:14:14.442Z,5.33
2023-03-07T20:16:41.966Z,6.00
2023-03-07T20:19:10.794Z,4.97
2023-03-07T20:21:40.079Z,6.30
2023-03-07T20:24:08.803Z,4.90
2023-03-07T20:26:39.217Z,5.10
2023-03-07T20:29:08.492Z,5.77
2023-03-07T20:31:36.716Z,5.30
2023-03-07T20:34:04.405Z,5.00
2023-03-07T20:36:33.596Z,5.50
2023-03-07T20:39:02.847Z,6.20
2023-03-07T20:41:32.204Z,4.93
2023-03-07T20:44:03.390Z,4.37
2023-03-07T20:46:32.141Z,5.10
2023-03-07T20:49:00.963Z,6.60
2023-03-07T20:51:30.916Z,7.20
2023-03-07T20:54:00.474Z,4.63
2023-03-07T20:56:29.777Z,5.70
2023-03-07T20:58:58.230Z,6.77
2023-03-07T21:01:28.788Z,11.77
2023-03-07T21:03:56.638Z,6.33
2023-03-07T21:06:24.171Z,12.33
2023-03-07T21:08:51.662Z,5.80
2023-03-07T21:11:20.702Z,7.40
2023-03-07T21:13:49.653Z,5.40
2023-03-07T21:16:19.141Z,6.27
2023-03-07T21:18:49.070Z,5.27
2023-03-07T21:21:18.612Z,4.97
2023-03-07T21:23:46.278Z,6.57
2023-03-07T21:26:15.712Z,5.07
2023-03-07T21:28:43.905Z,5.53
2023-03-07T21:31:17.323Z,5.83
2023-03-07T21:33:46.712Z,4.70
2023-03-07T21:36:16.914Z,7.23
2023-03-07T21:38:46.094Z,5.40
2023-03-07T21:41:14.608Z,5.30
2023-03-07T21:43:42.343Z,6.00
2023-03-07T21:46:11.549Z,5.43
2023-03-07T21:48:39.613Z,7.00
2023-03-07T21:51:07.866Z,6.00
2023-03-07T21:53:36.976Z,5.80
2023-03-07T21:56:06.797Z,6.00
2023-03-07T21:58:35.218Z,4.63
2023-03-07T22:01:10.327Z,4.60
2023-03-07T22:03:37.802Z,4.97
2023-03-07T22:06:07.043Z,5.50
2023-03-07T22:08:35.980Z,4.47
2023-03-07T22:11:05.441Z,4.83
2023-03-07T22:13:34.580Z,7.00
2023-03-07T22:16:05.360Z,5.47
2023-03-07T22:18:33.387Z,5.83
2023-03-07T22:21:00.988Z,7.80
2023-03-07T22:23:28.444Z,4.80
2023-03-07T22:25:57.238Z,6.13
2023-03-07T22:28:24.720Z,5.10
2023-03-07T22:30:52.165Z,4.87
2023-03-07T22:33:19.635Z,4.93
2023-03-07T22:35:56.434Z,5.73
2023-03-07T22:38:23.944Z,6.93
2023-03-07T22:40:51.495Z,6.37
2023-03-07T22:43:20.365Z,5.70
2023-03-07T22:45:49.910Z,6.80
2023-03-07T22:48:17.550Z,8.63
2023-03-07T22:50:45.082Z,6.80
2023-03-07T22:53:12.552Z,6.30
2023-03-07T22:55:41.828Z,8.07
2023-03-07T22:58:09.853Z,7.60
2023-03-07T23:00:41.128Z,6.53
2023-03-07T23:03:08.662Z,6.33
2023-03-07T23:05:37.071Z,5.83
2023-03-07T23:08:05.536Z,8.23
2023-03-07T23:10:33.271Z,6.27
2023-03-07T23:13:00.733Z,5.47
2023-03-07T23:15:28.569Z,6.30
2023-03-07T23:17:58.005Z,7.47
2023-03-07T23:20:26.277Z,5.57
2023-03-07T23:22:54.208Z,7.33
2023-03-07T23:25:22.193Z,7.07
2023-03-07T23:27:49.703Z,6.27
2023-03-07T23:30:18.298Z,7.10
2023-03-07T23:32:46.106Z,5.93
2023-03-07T23:35:15.178Z,6.83
2023-03-07T23:37:42.666Z,5.57
2023-03-07T23:40:12.831Z,8.57
2023-03-07T23:42:40.321Z,6.03
2023-03-07T23:45:08.768Z,5.97
2023-03-07T23:47:36.264Z,6.20
2023-03-07T23:50:03.867Z,7.63
2023-03-07T23:52:32.706Z,8.13
2023-03-07T23:55:00.199Z,6.70
2023-03-07T23:57:27.649Z,6.03
2023-03-07T23:59:55.523Z,6.50
